Time;durP1;ratioP1;P1;durP2;ratioP2;P2;SDS_P1;SDS_P2;PMS_P1;PMS_P2;Temp;Humidity;BMP_temperature;BMP_pressure;BME280_temperature;BME280_humidity;BME280_pressure;Samples;Min_cycle;Max_cycle;Signal;HPM_P1;HPM_P2
2023/02/20 00:00:31;;;;;;;6.40;3.30;;;8.60;99.90;;;;;;5010337;28;20211;-77
2023/02/20 00:02:57;;;;;;;6.67;3.60;;;8.60;99.90;;;;;;5018220;28;20650;-77
2023/02/20 00:05:22;;;;;;;6.30;3.50;;;8.50;99.90;;;;;;5009831;28;20432;-77
2023/02/20 00:07:48;;;;;;;18.97;3.83;;;8.50;99.90;;;;;;5010202;28;20432;-77
2023/02/20 00:10:14;;;;;;;6.47;3.23;;;8.50;99.90;;;;;;5009859;28;20243;-77
2023/02/20 00:12:40;;;;;;;4.93;3.50;;;8.50;99.90;;;;;;5009942;28;20637;-77
2023/02/20 00:15:06;;;;;;;5.43;3.63;;;8.50;99.90;;;;;;5008417;28;20520;-77
2023/02/20 00:17:32;;;;;;;9.87;3.60;;;8.40;99.90;;;;;;5010158;28;20307;-77
2023/02/20 00:19:57;;;;;;;13.30;3.93;;;8.50;99.90;;;;;;5009804;28;20983;-77
2023/02/20 00:22:24;;;;;;;9.70;3.50;;;8.40;99.90;;;;;;5010202;28;20208;-77
2023/02/20 00:24:50;;;;;;;6.97;4.07;;;8.40;99.90;;;;;;5010563;28;20646;-77
2023/02/20 00:27:16;;;;;;;7.60;2.93;;;8.50;99.90;;;;;;5011874;28;20420;-77
2023/02/20 00:29:44;;;;;;;10.10;4.13;;;8.50;99.90;;;;;;5015443;28;20439;-77
2023/02/20 00:32:09;;;;;;;8.43;3.27;;;8.50;99.90;;;;;;5012135;28;20571;-76
2023/02/20 00:34:35;;;;;;;5.23;3.17;;;8.50;99.90;;;;;;5030146;28;20462;-77
2023/02/20 00:37:00;;;;;;;5.40;3.50;;;8.40;99.90;;;;;;5012842;28;20185;-77
2023/02/20 00:39:26;;;;;;;4.33;2.67;;;8.40;99.90;;;;;;5010493;28;20293;-77
2023/02/20 00:41:52;;;;;;;5.60;2.73;;;8.40;99.90;;;;;;5010430;28;20667;-77
2023/02/20 00:44:17;;;;;;;4.30;3.07;;;8.40;99.90;;;;;;5008722;28;20331;-77
2023/02/20 00:46:43;;;;;;;6.73;2.90;;;8.30;99.90;;;;;;5010345;28;20275;-77
2023/02/20 00:49:08;;;;;;;4.70;3.10;;;8.30;99.90;;;;;;5016653;28;20194;-77
2023/02/20 00:51:35;;;;;;;4.03;3.27;;;8.30;99.90;;;;;;5009966;28;20567;-77
2023/02/20 00:54:01;;;;;;;9.20;3.60;;;8.30;99.90;;;;;;5017424;28;20207;-77
2023/02/20 00:56:27;;;;;;;6.07;2.90;;;8.30;99.90;;;;;;5014308;28;20418;-77
2023/02/20 00:58:52;;;;;;;9.10;4.70;;;8.30;99.90;;;;;;5021855;28;20411;-77
2023/02/20 01:01:18;;;;;;;4.20;2.90;;;8.20;99.90;;;;;;5011694;28;20447;-77
2023/02/20 01:03:43;;;;;;;5.73;2.70;;;8.20;99.90;;;;;;5013760;28;20193;-77
2023/02/20 01:06:10;;;;;;;2.70;2.50;;;8.10;99.90;;;;;;5013422;28;20226;-77
2023/02/20 01:08:36;;;;;;;8.43;4.10;;;8.10;99.90;;;;;;5021691;28;20185;-77
2023/02/20 01:11:02;;;;;;;9.70;3.00;;;8.00;99.90;;;;;;5013310;28;20454;-77
2023/02/20 01:13:27;;;;;;;4.30;3.07;;;7.90;99.90;;;;;;5017685;28;20189;-77
2023/02/20 01:15:53;;;;;;;12.23;2.87;;;7.90;99.90;;;;;;5017495;28;20845;-77
2023/02/20 01:18:18;;;;;;;7.37;3.00;;;7.90;99.90;;;;;;5024252;28;20182;-76
2023/02/20 01:20:44;;;;;;;7.23;3.47;;;7.80;99.90;;;;;;5017217;28;20207;-77
2023/02/20 01:23:10;;;;;;;11.13;3.23;;;7.80;99.90;;;;;;5013177;28;20192;-77
2023/02/20 01:25:35;;;;;;;4.23;3.80;;;7.70;99.90;;;;;;5013529;28;20658;-77
2023/02/20 01:28:01;;;;;;;4.80;2.93;;;7.60;99.90;;;;;;5012206;28;20469;-77
2023/02/20 01:30:27;;;;;;;6.13;2.70;;;7.60;99.90;;;;;;5020867;28;20263;-77
2023/02/20 01:32:52;;;;;;;9.53;3.83;;;7.50;99.90;;;;;;5013144;28;20185;-77
2023/02/20 01:35:18;;;;;;;5.77;3.07;;;7.50;99.90;;;;;;5011488;28;20573;-77
2023/02/20 01:37:44;;;;;;;7.50;3.20;;;7.40;99.90;;;;;;5013205;28;20193;-77
2023/02/20 01:40:16;;;;;;;7.13;3.67;;;7.30;99.90;;;;;;5013131;28;20584;-77
2023/02/20 01:42:41;;;;;;;4.43;3.23;;;7.30;99.90;;;;;;5013231;28;20192;-77
2023/02/20 01:45:22;;;;;;;8.50;2.87;;;7.30;99.90;;;;;;5012795;28;20423;-77
2023/02/20 01:47:50;;;;;;;9.70;4.00;;;7.30;99.90;;;;;;5021193;28;20187;-77
2023/02/20 01:50:19;;;;;;;3.80;3.33;;;7.20;99.90;;;;;;5011275;28;20457;-77
2023/02/20 01:52:48;;;;;;;6.83;3.10;;;7.20;99.90;;;;;;5019348;28;20451;-77
2023/02/20 01:55:26;;;;;;;9.90;3.47;;;7.20;99.90;;;;;;5021996;28;20465;-77
2023/02/20 01:57:59;;;;;;;9.03;3.47;;;7.10;99.90;;;;;;5011705;28;20431;-77
2023/02/20 03:31:04;;;;;;;11.93;2.90;;;6.80;99.90;;;;;;5823853;22;21163;-71
2023/02/20 03:45:13;;;;;;;7.90;3.33;;;6.70;99.90;;;;;;5022434;28;20957;-74
2023/02/20 03:47:44;;;;;;;4.03;2.50;;;6.70;99.90;;;;;;5019549;28;20441;-74
2023/02/20 03:52:56;;;;;;;5.60;2.00;;;6.70;99.90;;;;;;5023055;28;20813;-74
2023/02/20 03:55:23;;;;;;;5.90;2.90;;;6.80;99.90;;;;;;5020914;28;20497;-73
2023/02/20 03:57:52;;;;;;;7.80;3.50;;;6.80;99.90;;;;;;5019482;28;20436;-74
2023/02/20 04:00:22;;;;;;;5.03;2.30;;;6.80;99.90;;;;;;5019949;28;20422;-70
2023/02/20 04:02:53;;;;;;;7.20;2.50;;;6.80;99.90;;;;;;5022834;28;20467;-73
2023/02/20 04:05:22;;;;;;;4.43;3.20;;;6.80;99.90;;;;;;5036626;28;20460;-74
2023/02/20 04:08:15;;;;;;;9.53;3.07;;;6.80;99.90;;;;;;5019446;28;20445;-73
2023/02/20 04:10:47;;;;;;;6.27;3.00;;;6.70;99.90;;;;;;5019188;28;20817;-74
2023/02/20 04:13:15;;;;;;;4.13;2.77;;;6.70;99.90;;;;;;5019066;28;20798;-74
2023/02/20 04:15:42;;;;;;;6.53;3.40;;;6.70;99.90;;;;;;5022535;28;20531;-74
2023/02/20 04:18:15;;;;;;;4.40;3.17;;;6.60;99.90;;;;;;5015175;28;20942;-74
2023/02/20 04:20:40;;;;;;;5.40;2.83;;;6.50;99.90;;;;;;5011799;28;20455;-74
2023/02/20 04:23:14;;;;;;;6.77;2.73;;;6.50;99.90;;;;;;5019241;28;20433;-74
2023/02/20 04:25:49;;;;;;;3.40;2.70;;;6.40;99.90;;;;;;5011752;28;20198;-74
2023/02/20 04:28:16;;;;;;;9.00;3.00;;;6.30;99.90;;;;;;5018922;28;21124;-73
2023/02/20 04:30:42;;;;;;;14.87;3.40;;;6.30;99.90;;;;;;5018727;28;20795;-74
2023/02/20 04:33:13;;;;;;;11.93;3.30;;;6.20;99.90;;;;;;5018949;28;20588;-73
2023/02/20 04:35:38;;;;;;;5.70;3.33;;;6.10;99.90;;;;;;5023216;28;20490;-73
2023/02/20 04:38:05;;;;;;;9.10;3.93;;;6.00;99.90;;;;;;5026562;28;20510;-73
2023/02/20 04:40:30;;;;;;;9.90;3.70;;;5.90;99.90;;;;;;5023765;28;20268;-73
2023/02/20 04:42:56;;;;;;;8.40;2.57;;;5.80;99.90;;;;;;5022998;28;20432;-73
2023/02/20 04:45:21;;;;;;;4.20;2.80;;;5.70;99.90;;;;;;5023186;28;20650;-74
2023/02/20 04:47:47;;;;;;;3.00;2.70;;;5.70;99.90;;;;;;5026119;28;20191;-73
2023/02/20 04:50:27;;;;;;;2.87;2.60;;;5.60;99.90;;;;;;5026221;28;20203;-73
2023/02/20 04:52:53;;;;;;;6.97;3.10;;;5.60;99.90;;;;;;5016755;28;20196;-73
2023/02/20 04:55:19;;;;;;;2.93;2.47;;;5.50;99.90;;;;;;5022001;28;20471;-73
2023/02/20 04:57:45;;;;;;;3.53;2.70;;;5.50;99.90;;;;;;5037037;28;20471;-73
2023/02/20 05:00:13;;;;;;;3.00;2.80;;;5.50;99.90;;;;;;5021138;28;20465;-72
2023/02/20 05:02:39;;;;;;;4.87;3.00;;;5.40;99.90;;;;;;5022149;28;21031;-74
2023/02/20 05:05:06;;;;;;;3.73;3.17;;;5.40;99.90;;;;;;5021177;28;20470;-73
2023/02/20 05:07:32;;;;;;;4.80;2.90;;;5.40;99.90;;;;;;5037305;28;20481;-74
2023/02/20 05:09:58;;;;;;;8.33;3.50;;;5.30;99.90;;;;;;5022536;28;20782;-74
2023/02/20 05:12:23;;;;;;;7.43;3.53;;;5.30;99.90;;;;;;5023013;28;20531;-74
2023/02/20 05:14:49;;;;;;;5.03;3.03;;;5.20;99.90;;;;;;5025251;28;20707;-74
2023/02/20 05:17:14;;;;;;;4.43;3.17;;;5.20;99.90;;;;;;5024715;28;20598;-75
2023/02/20 05:19:40;;;;;;;5.17;3.03;;;5.10;99.90;;;;;;5022012;28;20202;-75
2023/02/20 05:22:17;;;;;;;4.70;4.10;;;5.10;99.90;;;;;;5022147;28;20209;-74
2023/02/20 05:24:44;;;;;;;9.13;4.70;;;5.00;99.90;;;;;;5014487;28;20198;-74
2023/02/20 05:27:10;;;;;;;6.87;3.40;;;5.00;99.90;;;;;;5012659;28;20950;-74
2023/02/20 05:29:36;;;;;;;4.93;3.43;;;4.90;99.90;;;;;;5029722;28;20498;-74
2023/02/20 05:32:01;;;;;;;7.53;3.60;;;4.80;99.90;;;;;;5021953;28;20984;-73
2023/02/20 05:34:27;;;;;;;4.13;3.10;;;4.80;99.90;;;;;;5022944;28;20708;-74
2023/02/20 05:36:53;;;;;;;5.47;3.57;;;4.70;99.90;;;;;;5025405;28;20196;-74
2023/02/20 05:39:19;;;;;;;8.67;5.00;;;4.70;99.90;;;;;;5024254;28;20183;-74
2023/02/20 05:41:45;;;;;;;6.00;3.70;;;4.60;99.90;;;;;;5021799;28;20540;-73
2023/02/20 05:44:10;;;;;;;2.93;2.73;;;4.60;99.90;;;;;;5021619;28;20476;-73
2023/02/20 05:46:40;;;;;;;4.60;3.00;;;4.50;99.90;;;;;;5023396;28;20195;-74
2023/02/20 05:49:06;;;;;;;5.03;3.03;;;4.50;99.90;;;;;;5024878;28;20664;-74
2023/02/20 05:51:32;;;;;;;7.17;3.33;;;4.40;99.90;;;;;;5022875;28;20600;-75
2023/02/20 05:53:57;;;;;;;3.50;3.20;;;4.40;99.90;;;;;;5021591;28;20243;-74
2023/02/20 05:56:23;;;;;;;9.47;4.97;;;4.30;99.90;;;;;;5021710;28;20678;-74
2023/02/20 05:58:49;;;;;;;7.63;5.33;;;4.30;99.90;;;;;;5024841;28;20246;-74
2023/02/20 06:01:20;;;;;;;9.00;5.23;;;4.20;99.90;;;;;;5024723;28;20564;-74
2023/02/20 06:03:46;;;;;;;11.97;4.27;;;4.20;99.90;;;;;;5013953;28;20441;-74
2023/02/20 06:06:13;;;;;;;9.80;3.67;;;4.20;99.90;;;;;;5021668;28;20453;-73
2023/02/20 06:08:39;;;;;;;6.73;4.37;;;4.20;99.90;;;;;;5023869;28;20249;-73
2023/02/20 06:11:05;;;;;;;9.47;3.53;;;4.20;99.90;;;;;;5017873;28;20511;-74
2023/02/20 06:13:31;;;;;;;7.00;4.67;;;4.20;99.90;;;;;;5010934;28;20444;-72
2023/02/20 06:15:56;;;;;;;7.60;4.00;;;4.20;99.90;;;;;;5010369;28;20466;-73
2023/02/20 06:18:22;;;;;;;7.97;4.00;;;4.20;99.90;;;;;;5020075;28;20711;-72
2023/02/20 06:20:47;;;;;;;16.83;9.33;;;4.20;99.90;;;;;;5024510;28;20212;-78
2023/02/20 06:23:13;;;;;;;11.73;6.57;;;4.20;99.90;;;;;;5016405;28;20194;-73
2023/02/20 06:25:38;;;;;;;12.27;5.10;;;4.20;99.90;;;;;;5018841;28;21155;-74
2023/02/20 06:28:04;;;;;;;7.73;4.47;;;4.30;99.90;;;;;;5020715;28;20621;-73
2023/02/20 06:30:30;;;;;;;8.60;5.87;;;4.30;99.90;;;;;;5021737;28;20233;-73
2023/02/20 06:32:55;;;;;;;6.63;3.67;;;4.30;99.90;;;;;;5024300;28;20237;-73
2023/02/20 06:35:21;;;;;;;12.30;4.10;;;4.40;99.90;;;;;;5023537;28;20247;-73
2023/02/20 06:37:46;;;;;;;6.57;4.40;;;4.50;99.90;;;;;;5020613;28;20274;-73
2023/02/20 06:40:12;;;;;;;13.23;5.00;;;4.60;99.90;;;;;;5020670;28;20197;-73
2023/02/20 06:42:37;;;;;;;5.93;3.77;;;4.70;99.90;;;;;;5022828;28;20215;-73
2023/02/20 06:45:03;;;;;;;9.93;4.00;;;4.70;99.90;;;;;;5026176;28;20206;-73
2023/02/20 06:47:29;;;;;;;6.17;3.60;;;4.80;99.90;;;;;;5028312;28;20218;-75
2023/02/20 06:49:54;;;;;;;10.10;4.33;;;4.90;99.90;;;;;;5017255;28;20735;-74
2023/02/20 06:52:20;;;;;;;6.60;5.53;;;4.90;99.90;;;;;;5023768;28;20237;-72
2023/02/20 06:54:45;;;;;;;17.90;4.47;;;5.00;99.90;;;;;;5020022;28;20679;-74
2023/02/20 06:57:11;;;;;;;9.80;4.10;;;4.90;99.90;;;;;;5020366;28;20225;-73
2023/02/20 06:59:38;;;;;;;5.43;4.27;;;5.00;99.90;;;;;;5021383;28;20202;-72
2023/02/20 07:02:04;;;;;;;6.03;3.70;;;5.10;99.90;;;;;;5023737;28;20207;-74
2023/02/20 07:04:30;;;;;;;8.30;3.77;;;5.10;99.90;;;;;;5022196;28;20437;-73
2023/02/20 07:06:55;;;;;;;7.27;4.30;;;5.30;99.90;;;;;;5020394;28;20434;-73
2023/02/20 07:09:21;;;;;;;7.87;4.40;;;5.30;99.90;;;;;;5020132;28;20280;-73
2023/02/20 07:11:49;;;;;;;15.37;9.53;;;5.40;99.90;;;;;;5023490;28;20210;-74
2023/02/20 07:14:15;;;;;;;8.10;4.90;;;5.50;99.90;;;;;;5023280;28;20476;-75
2023/02/20 07:16:40;;;;;;;5.37;3.70;;;5.70;99.90;;;;;;5020754;28;20833;-74
2023/02/20 07:19:06;;;;;;;5.53;3.70;;;5.90;99.90;;;;;;5017679;28;20194;-74
2023/02/20 07:21:31;;;;;;;5.63;3.53;;;6.10;99.90;;;;;;5021596;28;20777;-74
2023/02/20 07:23:57;;;;;;;8.60;4.60;;;6.30;99.90;;;;;;5024386;28;20711;-75
2023/02/20 07:26:28;;;;;;;13.87;4.40;;;6.40;99.90;;;;;;5023169;28;20192;-73
2023/02/20 07:28:54;;;;;;;6.27;3.30;;;6.70;99.90;;;;;;5016234;28;20197;-75
2023/02/20 07:31:20;;;;;;;6.30;3.20;;;7.70;99.90;;;;;;5023276;28;20982;-74
2023/02/20 07:33:46;;;;;;;5.23;2.97;;;9.00;99.90;;;;;;5019475;28;20422;-75
2023/02/20 07:36:13;;;;;;;5.90;3.00;;;10.20;99.90;;;;;;5019507;28;20417;-74
2023/02/20 07:38:39;;;;;;;7.17;3.30;;;11.10;99.90;;;;;;5021354;28;20190;-74
2023/02/20 07:41:06;;;;;;;4.67;4.00;;;12.10;99.90;;;;;;5022947;28;20467;-75
2023/02/20 07:43:31;;;;;;;6.00;3.03;;;13.20;99.90;;;;;;5022561;28;20495;-74
2023/02/20 07:45:57;;;;;;;2.40;2.20;;;13.90;99.90;;;;;;5022895;28;20798;-72
2023/02/20 07:48:23;;;;;;;8.10;2.90;;;14.70;99.90;;;;;;5022613;28;20244;-74
2023/02/20 07:50:49;;;;;;;8.53;3.20;;;15.50;99.90;;;;;;5022523;28;20213;-74
2023/02/20 07:53:16;;;;;;;9.50;2.70;;;15.70;99.90;;;;;;5023905;28;20187;-74
2023/02/20 07:55:42;;;;;;;6.67;3.37;;;15.90;99.90;;;;;;5021328;28;20472;-74
2023/02/20 07:58:08;;;;;;;4.90;2.60;;;16.20;99.90;;;;;;5016927;28;20430;-74
2023/02/20 08:00:33;;;;;;;2.80;2.33;;;16.20;99.90;;;;;;5020174;28;20201;-74
2023/02/20 08:02:59;;;;;;;7.53;2.30;;;15.80;99.90;;;;;;5022839;28;20273;-74
2023/02/20 08:05:25;;;;;;;62.40;5.03;;;15.80;99.90;;;;;;5022509;28;20182;-73
2023/02/20 08:07:51;;;;;;;45.23;3.53;;;15.90;99.90;;;;;;5030625;28;20235;-74
2023/02/20 08:10:19;;;;;;;76.93;5.90;;;16.00;99.90;;;;;;5022393;28;20424;-74
2023/02/20 08:12:46;;;;;;;1999.90;999.90;;;15.60;99.90;;;;;;5020156;28;20190;-73
2023/02/20 08:15:11;;;;;;;5.93;3.27;;;14.90;99.90;;;;;;5019106;28;20473;-75
2023/02/20 08:17:38;;;;;;;5.30;2.70;;;14.20;99.90;;;;;;5020597;28;20448;-75
2023/02/20 08:20:05;;;;;;;8.00;3.00;;;14.10;99.90;;;;;;5030593;28;20257;-76
2023/02/20 08:22:31;;;;;;;6.83;2.90;;;14.20;99.90;;;;;;5021840;28;20452;-75
2023/02/20 08:24:56;;;;;;;3.30;2.00;;;14.20;99.90;;;;;;5019039;28;20524;-75
2023/02/20 08:27:22;;;;;;;6.73;2.50;;;13.90;99.90;;;;;;5010975;28;20525;-75
2023/02/20 08:29:47;;;;;;;3.57;2.30;;;14.10;99.90;;;;;;5021752;28;20194;-75
2023/02/20 08:32:13;;;;;;;8.20;2.40;;;13.80;99.90;;;;;;5022370;28;20217;-75
2023/02/20 08:34:38;;;;;;;6.87;2.30;;;13.60;99.90;;;;;;5020388;28;20210;-74
2023/02/20 08:37:04;;;;;;;7.87;3.00;;;13.70;99.90;;;;;;5019110;28;20202;-75
2023/02/20 08:39:29;;;;;;;7.20;3.43;;;13.80;99.90;;;;;;5026752;28;20236;-75
2023/02/20 08:41:55;;;;;;;4.33;2.70;;;13.90;99.90;;;;;;5018797;28;20770;-75
2023/02/20 08:44:20;;;;;;;4.93;2.80;;;14.10;99.90;;;;;;5011106;28;20197;-76
2023/02/20 08:46:50;;;;;;;4.97;2.37;;;14.40;99.90;;;;;;5018803;28;20193;-77
2023/02/20 08:49:17;;;;;;;6.87;2.60;;;14.70;99.90;;;;;;5025213;28;20190;-75
2023/02/20 08:51:46;;;;;;;4.10;2.60;;;14.80;99.90;;;;;;5012171;28;20510;-76
2023/02/20 08:54:13;;;;;;;3.47;2.07;;;14.50;99.90;;;;;;5018746;28;20989;-74
2023/02/20 08:56:40;;;;;;;13.93;2.60;;;14.60;99.90;;;;;;5019826;28;20869;-75
2023/02/20 08:59:06;;;;;;;3.90;2.00;;;14.80;99.90;;;;;;5016998;28;20430;-75
2023/02/20 09:01:31;;;;;;;3.67;2.57;;;15.00;99.90;;;;;;5026426;28;20460;-75
2023/02/20 09:03:57;;;;;;;6.70;2.40;;;15.00;99.90;;;;;;5018706;28;20195;-75
2023/02/20 09:06:24;;;;;;;5.10;2.00;;;14.80;99.90;;;;;;5016760;28;20216;-75
2023/02/20 09:08:51;;;;;;;4.80;2.00;;;14.80;99.90;;;;;;5018421;28;20183;-75
2023/02/20 09:11:17;;;;;;;6.30;2.43;;;14.90;99.90;;;;;;5018295;28;20511;-75
2023/02/20 09:13:43;;;;;;;9.30;2.23;;;15.20;99.90;;;;;;5019977;28;20524;-76
2023/02/20 09:16:10;;;;;;;4.17;2.40;;;15.20;99.90;;;;;;5024450;28;21004;-75
2023/02/20 09:18:36;;;;;;;6.80;2.00;;;15.40;99.90;;;;;;5019016;28;20460;-76
2023/02/20 09:21:01;;;;;;;2.70;1.47;;;15.90;99.90;;;;;;5017815;28;20477;-75
2023/02/20 09:23:27;;;;;;;4.33;1.90;;;15.80;99.90;;;;;;5022099;28;20770;-75
2023/02/20 09:25:52;;;;;;;3.40;1.77;;;16.00;99.90;;;;;;5015399;28;20178;-74
2023/02/20 09:28:18;;;;;;;5.90;1.37;;;16.40;99.90;;;;;;5026615;28;20663;-75
2023/02/20 09:30:44;;;;;;;5.77;1.40;;;16.40;99.90;;;;;;5023469;28;20222;-75
2023/02/20 09:33:09;;;;;;;4.30;1.50;;;16.50;99.90;;;;;;5025443;28;20186;-74
2023/02/20 09:35:35;;;;;;;3.37;2.47;;;16.60;99.90;;;;;;5024761;28;20216;-75
2023/02/20 09:38:01;;;;;;;3.73;1.73;;;16.80;99.90;;;;;;5025629;28;20190;-75
2023/02/20 09:40:29;;;;;;;4.57;1.73;;;16.60;99.90;;;;;;5026345;28;20186;-75
2023/02/20 09:43:17;;;;;;;3.43;1.90;;;16.60;99.90;;;;;;5026134;28;20214;-74
2023/02/20 09:46:05;;;;;;;5.33;1.80;;;17.10;99.90;;;;;;5023733;28;20856;-73
2023/02/20 09:49:05;;;;;;;5.60;1.60;;;17.20;99.90;;;;;;5022425;28;20473;-74
2023/02/20 09:51:34;;;;;;;8.90;1.93;;;17.20;99.90;;;;;;5027228;28;20495;-75
2023/02/20 09:54:12;;;;;;;6.37;1.97;;;16.80;99.90;;;;;;5025744;28;20435;-74
2023/02/20 09:56:41;;;;;;;4.23;1.83;;;16.40;99.90;;;;;;5024131;28;20937;-74
2023/02/20 09:59:15;;;;;;;3.43;1.50;;;15.90;99.90;;;;;;5021591;28;20793;-74
2023/02/20 10:02:17;;;;;;;3.30;1.77;;;15.80;99.90;;;;;;5022561;28;20438;-76
2023/02/20 10:04:47;;;;;;;7.83;2.50;;;15.70;99.90;;;;;;5024620;28;20478;-76
2023/02/20 10:07:33;;;;;;;3.23;1.60;;;15.40;99.90;;;;;;5024748;28;20478;-72
2023/02/20 10:10:05;;;;;;;6.50;2.10;;;15.30;99.90;;;;;;5029280;28;20484;-76
2023/02/20 10:12:53;;;;;;;4.27;1.57;;;15.00;99.90;;;;;;5013597;28;20958;-75
2023/02/20 10:15:44;;;;;;;4.30;1.77;;;14.90;99.90;;;;;;5015865;28;20461;-74
2023/02/20 10:18:21;;;;;;;7.27;2.40;;;14.80;99.90;;;;;;5014512;28;20516;-75
2023/02/20 10:21:08;;;;;;;2.47;1.60;;;15.00;99.90;;;;;;5020914;28;20432;-75
2023/02/20 10:23:50;;;;;;;5.03;1.77;;;15.20;99.90;;;;;;5020880;28;21008;-73
2023/02/20 10:26:29;;;;;;;3.37;1.73;;;15.30;99.90;;;;;;5021127;28;20498;-75
2023/02/20 10:29:01;;;;;;;5.97;2.80;;;15.40;99.90;;;;;;5016008;28;21248;-75
2023/02/20 10:31:49;;;;;;;3.53;1.53;;;15.70;99.90;;;;;;5025031;28;20465;-74
2023/02/20 10:34:30;;;;;;;8.70;1.70;;;16.30;99.90;;;;;;5020125;28;20480;-75
2023/02/20 10:37:05;;;;;;;41.17;2.70;;;17.00;99.90;;;;;;5021033;28;20907;-75
2023/02/20 10:39:32;;;;;;;29.73;2.53;;;17.40;99.90;;;;;;5020834;28;20516;-77
2023/02/20 10:42:07;;;;;;;19.60;1.93;;;18.00;99.90;;;;;;5023670;28;20591;-76
2023/02/20 10:44:40;;;;;;;18.00;2.20;;;18.40;99.90;;;;;;5016332;28;20520;-75
2023/02/20 10:47:36;;;;;;;12.33;1.87;;;18.60;99.90;;;;;;5005396;28;20426;-75
2023/02/20 10:50:09;;;;;;;17.90;1.83;;;18.30;99.90;;;;;;5020747;28;20776;-75
2023/02/20 10:52:45;;;;;;;26.50;2.30;;;18.20;99.90;;;;;;5020811;28;20861;-74
2023/02/20 10:55:43;;;;;;;25.63;1.87;;;17.80;99.90;;;;;;5010500;28;20784;-74
2023/02/20 10:58:19;;;;;;;28.27;2.03;;;17.30;99.90;;;;;;5013361;28;20853;-74
2023/02/20 11:00:52;;;;;;;32.50;2.03;;;17.40;99.90;;;;;;5021543;28;20441;-75
2023/02/20 11:03:44;;;;;;;18.53;10.73;;;17.50;99.90;;;;;;5023797;28;20425;-75
2023/02/20 11:06:17;;;;;;;5.20;1.50;;;17.50;99.90;;;;;;5013465;28;20430;-76
2023/02/20 11:08:43;;;;;;;2.80;1.17;;;17.20;99.90;;;;;;5020804;28;20426;-75
2023/02/20 11:11:24;;;;;;;4.57;1.20;;;17.10;99.90;;;;;;5027281;28;20499;-76
2023/02/20 11:13:50;;;;;;;6.87;2.00;;;17.30;99.90;;;;;;5012242;28;20252;-76
2023/02/20 11:16:32;;;;;;;5.83;1.40;;;17.20;99.90;;;;;;5020083;28;20430;-75
2023/02/20 11:19:31;;;;;;;3.90;1.50;;;17.10;99.90;;;;;;5022676;28;20309;-75
2023/02/20 11:21:57;;;;;;;1.63;1.37;;;16.90;99.90;;;;;;5020375;28;20536;-76
2023/02/20 11:24:22;;;;;;;2.50;1.17;;;17.10;99.90;;;;;;5031445;28;20911;-74
2023/02/20 11:26:53;;;;;;;2.30;1.20;;;17.40;99.90;;;;;;5015141;28;20539;-75
2023/02/20 11:29:21;;;;;;;3.00;1.20;;;17.50;99.90;;;;;;5025666;28;20219;-75
2023/02/20 11:31:48;;;;;;;1.60;1.00;;;17.50;99.90;;;;;;5021148;28;20825;-75
2023/02/20 11:34:23;;;;;;;6.93;1.70;;;17.70;99.90;;;;;;5026464;28;20472;-75
2023/02/20 11:36:52;;;;;;;3.47;1.40;;;17.50;99.90;;;;;;5021106;28;20523;-75
2023/02/20 11:39:27;;;;;;;8.87;1.70;;;17.60;99.90;;;;;;5023161;28;20525;-75
2023/02/20 11:42:14;;;;;;;2.40;1.33;;;17.60;99.90;;;;;;5020901;28;20801;-75
2023/02/20 11:44:39;;;;;;;3.30;1.53;;;17.70;99.90;;;;;;5027067;28;20440;-74
2023/02/20 11:47:20;;;;;;;3.17;1.67;;;17.40;99.90;;;;;;5023079;28;20771;-75
2023/02/20 11:49:46;;;;;;;2.40;1.30;;;17.10;99.90;;;;;;5013828;28;20186;-75
2023/02/20 11:52:23;;;;;;;3.53;1.40;;;17.10;99.90;;;;;;5023783;28;20448;-75
2023/02/20 11:55:18;;;;;;;3.27;1.30;;;17.10;99.90;;;;;;5029307;28;20467;-74
2023/02/20 11:57:44;;;;;;;2.07;1.80;;;17.20;99.90;;;;;;5018547;28;20467;-75
2023/02/20 12:00:21;;;;;;;1.83;1.17;;;17.30;99.90;;;;;;5015593;28;20432;-75
2023/02/20 12:02:49;;;;;;;1.17;1.00;;;17.30;99.90;;;;;;5022903;28;20425;-74
2023/02/20 12:05:14;;;;;;;2.00;1.00;;;17.40;99.90;;;;;;5022669;28;20420;-74
2023/02/20 12:07:44;;;;;;;5.30;1.60;;;17.40;99.90;;;;;;5022926;28;20428;-75
2023/02/20 12:10:15;;;;;;;6.33;1.57;;;17.40;99.90;;;;;;5012296;28;20187;-74
2023/02/20 12:12:41;;;;;;;3.23;1.20;;;17.40;99.90;;;;;;5019789;28;20463;-74
2023/02/20 12:15:15;;;;;;;12.03;1.67;;;17.60;99.90;;;;;;5023040;28;20476;-74
2023/02/20 12:18:05;;;;;;;2.87;1.07;;;17.50;99.90;;;;;;5022869;28;20201;-74
2023/02/20 12:20:31;;;;;;;2.33;0.90;;;17.60;99.90;;;;;;5014785;28;20926;-75
2023/02/20 12:23:09;;;;;;;6.07;0.97;;;17.70;99.90;;;;;;5021793;28;20421;-75
2023/02/20 12:25:55;;;;;;;2.40;0.90;;;17.80;99.90;;;;;;5015672;28;20435;-75
2023/02/20 12:28:30;;;;;;;2.80;1.27;;;17.80;99.90;;;;;;5028519;28;20914;-76
2023/02/20 12:31:05;;;;;;;4.53;1.53;;;17.70;99.90;;;;;;5021291;28;20495;-75
2023/02/20 12:33:58;;;;;;;1.97;0.97;;;17.50;99.90;;;;;;5038275;28;20498;-75
2023/02/20 12:36:38;;;;;;;1.47;1.10;;;17.30;99.90;;;;;;5022960;28;20440;-75
2023/02/20 12:39:16;;;;;;;3.17;1.43;;;17.10;99.90;;;;;;5019223;28;20425;-75
2023/02/20 12:41:54;;;;;;;3.10;1.10;;;17.10;99.90;;;;;;5019235;28;21025;-75
2023/02/20 12:44:48;;;;;;;5.40;1.40;;;17.30;99.90;;;;;;5012831;28;20417;-75
2023/02/20 12:47:23;;;;;;;2.10;0.93;;;17.50;99.90;;;;;;5012057;28;20425;-75
2023/02/20 12:50:03;;;;;;;3.63;1.33;;;17.40;99.90;;;;;;5020121;28;20421;-74
2023/02/20 12:52:51;;;;;;;4.53;1.10;;;17.50;99.90;;;;;;5022447;28;20448;-74
2023/02/20 12:55:38;;;;;;;3.23;1.03;;;17.40;99.90;;;;;;5012246;28;20531;-74
2023/02/20 12:58:20;;;;;;;2.83;0.87;;;17.40;99.90;;;;;;5024628;28;20416;-75
2023/02/20 13:00:51;;;;;;;1.73;0.70;;;17.20;99.90;;;;;;5025476;28;20445;-74
2023/02/20 13:03:44;;;;;;;1.80;0.87;;;17.10;99.90;;;;;;5022506;28;20429;-75
2023/02/20 13:06:15;;;;;;;6.03;0.93;;;16.90;99.90;;;;;;5001465;28;20849;-75
2023/02/20 13:08:51;;;;;;;5.93;1.13;;;16.70;99.90;;;;;;5022548;28;20425;-76
2023/02/20 13:11:20;;;;;;;3.63;0.80;;;16.60;99.90;;;;;;5020021;28;20527;-74
2023/02/20 13:13:54;;;;;;;1.33;0.60;;;16.70;99.90;;;;;;5023219;28;20423;-74
2023/02/20 13:16:32;;;;;;;3.80;0.90;;;16.70;99.90;;;;;;5019020;28;20508;-75
2023/02/20 13:19:05;;;;;;;2.03;0.70;;;16.70;99.90;;;;;;5023410;28;20424;-74
2023/02/20 13:21:32;;;;;;;1.13;0.90;;;16.80;99.90;;;;;;5022237;28;20531;-75
2023/02/20 13:24:16;;;;;;;3.03;0.80;;;16.90;99.90;;;;;;5016940;28;20488;-74
2023/02/20 13:26:52;;;;;;;1.60;0.80;;;17.00;99.90;;;;;;5025703;28;20793;-75
2023/02/20 13:29:22;;;;;;;3.90;1.00;;;16.90;99.90;;;;;;5020768;28;20428;-73
2023/02/20 13:31:56;;;;;;;2.40;0.80;;;17.00;99.90;;;;;;5037545;28;20540;-74
2023/02/20 13:34:28;;;;;;;2.67;0.60;;;17.00;99.90;;;;;;5019280;28;20478;-75
2023/02/20 13:36:53;;;;;;;1.27;0.50;;;16.90;99.90;;;;;;5024077;28;20447;-75
2023/02/20 13:39:45;;;;;;;0.80;0.70;;;17.00;99.90;;;;;;5018168;28;20934;-75
2023/02/20 13:42:30;;;;;;;1.60;0.70;;;16.90;99.90;;;;;;5022359;28;20217;-74
2023/02/20 13:44:56;;;;;;;1.67;0.70;;;16.80;99.90;;;;;;5023105;28;20428;-76
2023/02/20 13:47:21;;;;;;;2.90;0.60;;;17.00;99.90;;;;;;5025125;28;20433;-75
2023/02/20 13:49:50;;;;;;;2.27;0.60;;;16.90;99.90;;;;;;5025894;28;20198;-74
2023/02/20 13:52:41;;;;;;;1.20;0.67;;;17.00;99.90;;;;;;5025366;28;20210;-75
2023/02/20 13:55:09;;;;;;;4.90;1.20;;;16.90;99.90;;;;;;5021887;28;20539;-75
2023/02/20 13:57:46;;;;;;;2.23;0.60;;;16.90;99.90;;;;;;5021772;28;20441;-74
2023/02/20 14:00:24;;;;;;;2.53;0.53;;;17.00;99.90;;;;;;5013702;28;20429;-74
2023/02/20 14:02:49;;;;;;;0.73;0.60;;;16.90;99.90;;;;;;5014961;28;20441;-74
2023/02/20 14:05:22;;;;;;;3.03;0.50;;;16.90;99.20;;;;;;5017645;28;20441;-74
2023/02/20 14:07:48;;;;;;;1.93;0.70;;;16.80;98.90;;;;;;5017223;28;20233;-73
2023/02/20 14:10:15;;;;;;;0.80;0.50;;;16.70;99.80;;;;;;5017179;28;20434;-73
2023/02/20 14:12:40;;;;;;;0.70;0.50;;;16.70;98.50;;;;;;5017577;28;20756;-74
2023/02/20 14:15:07;;;;;;;0.87;0.40;;;16.70;96.70;;;;;;5019124;28;20473;-73
2023/02/20 14:17:38;;;;;;;0.73;0.43;;;16.70;96.30;;;;;;5017229;28;20197;-75
2023/02/20 14:20:05;;;;;;;3.53;0.50;;;16.50;94.00;;;;;;5019639;28;20430;-78
2023/02/20 14:22:34;;;;;;;1.17;0.50;;;16.40;94.20;;;;;;5014859;28;20453;-77
2023/02/20 14:25:16;;;;;;;4.03;1.03;;;16.30;94.20;;;;;;5012765;28;20782;-78
2023/02/20 14:27:42;;;;;;;1.30;0.50;;;16.30;94.60;;;;;;5030508;28;21038;-75
2023/02/20 14:30:24;;;;;;;5.33;0.70;;;16.20;95.90;;;;;;5018931;28;20442;-76
2023/02/20 14:32:52;;;;;;;2.13;0.77;;;16.20;97.30;;;;;;5020924;28;20464;-76
2023/02/20 14:35:55;;;;;;;1.20;0.80;;;16.20;99.90;;;;;;5020694;28;20548;-76
2023/02/20 14:38:38;;;;;;;1.93;0.77;;;16.00;99.90;;;;;;5006456;28;20444;-75
2023/02/20 14:41:18;;;;;;;1.67;0.80;;;16.00;99.90;;;;;;5012093;28;20452;-75
2023/02/20 14:43:44;;;;;;;1.93;0.70;;;15.90;99.90;;;;;;5012523;28;20425;-74
2023/02/20 14:46:32;;;;;;;2.90;0.97;;;15.90;99.90;;;;;;5023303;28;20429;-75
2023/02/20 14:49:11;;;;;;;0.70;0.60;;;15.80;99.90;;;;;;5022717;28;20558;-75
2023/02/20 14:51:38;;;;;;;1.30;0.70;;;15.70;99.90;;;;;;5020864;28;20457;-74